createdAt,value
2022-08-04T00:00:04.320Z,22.8
2022-08-04T00:02:03.629Z,22.8
2022-08-04T00:04:02.062Z,22.9
2022-08-04T00:06:03.610Z,22.9
2022-08-04T00:08:02.372Z,22.8
2022-08-04T00:10:02.099Z,22.8
2022-08-04T00:12:04.988Z,22.7
2022-08-04T00:14:02.501Z,22.7
2022-08-04T00:16:02.115Z,22.7
2022-08-04T00:18:05.225Z,22.8
2022-08-04T00:20:02.734Z,22.7
2022-08-04T00:22:02.804Z,22.7
2022-08-04T00:26:03.637Z,22.7
2022-08-04T00:28:09.632Z,22.6
2022-08-04T00:30:02.317Z,22.6
2022-08-04T00:32:02.355Z,22.6
2022-08-04T00:34:02.063Z,22.6
2022-08-04T00:36:04.037Z,22.6
2022-08-04T00:38:03.496Z,22.4
2022-08-04T00:40:02.089Z,22.4
2022-08-04T00:46:15.715Z,22.4
2022-08-04T00:48:02.641Z,22.3
2022-08-04T00:50:09.857Z,22.4
2022-08-04T00:52:31.051Z,22.3
2022-08-04T00:54:03.730Z,22.2
2022-08-04T00:56:03.076Z,21.9
2022-08-04T00:58:02.086Z,21.7
2022-08-04T01:00:03.754Z,21.5
2022-08-04T01:02:02.857Z,21.2
2022-08-04T01:04:03.405Z,21.2
2022-08-04T01:06:06.907Z,21.2
2022-08-04T01:08:03.361Z,21.1
2022-08-04T01:10:02.145Z,21.2
2022-08-04T01:12:03.625Z,21
2022-08-04T01:14:02.330Z,21
2022-08-04T01:16:02.088Z,21.1
2022-08-04T01:20:02.660Z,20.8
2022-08-04T01:22:02.433Z,20.8
2022-08-04T01:24:03.049Z,20.8
2022-08-04T01:26:02.319Z,20.8
2022-08-04T01:28:02.528Z,20.7
2022-08-04T01:30:07.132Z,20.7
2022-08-04T01:32:02.398Z,20.7
2022-08-04T01:34:03.529Z,20.7
2022-08-04T01:36:06.355Z,20.6
2022-08-04T01:38:02.700Z,20.6
2022-08-04T01:40:02.097Z,20.5
2022-08-04T01:42:02.651Z,20.5
2022-08-04T01:44:02.325Z,20.5
2022-08-04T01:46:03.900Z,20.6
2022-08-04T01:50:02.830Z,20.8
2022-08-04T01:52:08.172Z,20.8
2022-08-04T01:54:02.290Z,20.8
2022-08-04T01:56:02.374Z,20.8
2022-08-04T01:58:03.807Z,20.9
2022-08-04T02:00:02.484Z,20.7
2022-08-04T02:02:02.556Z,20.6
2022-08-04T02:04:18.006Z,20.6
2022-08-04T02:06:04.086Z,20.4
2022-08-04T02:08:03.396Z,20.4
2022-08-04T02:12:02.278Z,20.3
2022-08-04T02:14:02.350Z,20.2
2022-08-04T02:16:03.765Z,20.1
2022-08-04T02:18:02.279Z,20
2022-08-04T02:22:03.673Z,20
2022-08-04T02:24:02.278Z,20.1
2022-08-04T02:26:07.554Z,20
2022-08-04T02:28:02.103Z,19.9
2022-08-04T02:30:02.778Z,20
2022-08-04T02:34:02.072Z,19.7
2022-08-04T02:36:02.597Z,19.5
2022-08-04T02:38:02.419Z,19.5
2022-08-04T02:40:02.068Z,19.5
2022-08-04T02:42:05.310Z,19.4
2022-08-04T02:44:02.794Z,19.3
2022-08-04T02:46:02.079Z,19.3
2022-08-04T02:48:08.593Z,19.3
2022-08-04T02:50:04.927Z,19.3
2022-08-04T02:52:02.083Z,19.4
2022-08-04T02:54:02.769Z,19.3
2022-08-04T02:56:02.344Z,19.3
2022-08-04T02:58:02.103Z,19.3
2022-08-04T03:00:02.408Z,19.4
2022-08-04T03:02:03.806Z,19.3
2022-08-04T03:04:02.116Z,19.2
2022-08-04T03:06:08.770Z,19.2
2022-08-04T03:08:02.870Z,19.3
2022-08-04T03:10:03.527Z,19.4
2022-08-04T03:12:02.311Z,19.6
2022-08-04T03:14:05.334Z,19.5
2022-08-04T03:18:03.404Z,19.7
2022-08-04T03:20:02.820Z,19.6
2022-08-04T03:22:02.077Z,19.4
2022-08-04T03:24:02.312Z,19.4
2022-08-04T03:26:05.679Z,19.4
2022-08-04T03:28:02.167Z,19.3
2022-08-04T03:30:02.391Z,19.3
2022-08-04T03:32:02.811Z,19.2
2022-08-04T03:34:02.460Z,19.2
2022-08-04T03:36:02.373Z,19.2
2022-08-04T03:38:02.434Z,19.3
2022-08-04T03:40:08.844Z,19.1
2022-08-04T03:42:03.786Z,19
2022-08-04T03:44:02.662Z,18.9
2022-08-04T03:48:03.369Z,19
2022-08-04T03:50:02.332Z,18.8
2022-08-04T03:52:03.441Z,18.6
2022-08-04T03:54:02.292Z,18.7
2022-08-04T03:56:03.672Z,18.9
2022-08-04T03:58:03.538Z,18.9
2022-08-04T04:00:03.207Z,18.8
2022-08-04T04:02:06.669Z,18.8
2022-08-04T04:04:02.816Z,18.9
2022-08-04T04:08:04.007Z,18.8
2022-08-04T04:10:06.101Z,18.8
2022-08-04T04:12:02.364Z,18.9
2022-08-04T04:14:05.107Z,18.9
2022-08-04T04:16:02.462Z,19
2022-08-04T04:18:02.294Z,19.1
2022-08-04T04:20:07.038Z,19
2022-08-04T04:22:07.128Z,18.9
2022-08-04T04:24:02.345Z,18.9
2022-08-04T04:26:03.833Z,19
2022-08-04T04:28:44.121Z,19.1
2022-08-04T04:30:07.000Z,19
2022-08-04T04:32:02.423Z,19
2022-08-04T04:34:03.663Z,19.1
2022-08-04T04:36:02.299Z,19.1
2022-08-04T04:38:02.433Z,19.1
2022-08-04T04:40:03.497Z,19.2
2022-08-04T04:42:04.087Z,19.3
2022-08-04T04:44:02.366Z,19.4
2022-08-04T04:46:02.123Z,19.4
2022-08-04T04:48:07.936Z,19.6
2022-08-04T04:50:02.368Z,19.6
2022-08-04T04:52:02.118Z,19.6
2022-08-04T04:54:02.364Z,19.5
2022-08-04T04:56:02.694Z,19.5
2022-08-04T04:58:02.347Z,19.4
2022-08-04T05:00:02.563Z,19.6
2022-08-04T05:02:02.792Z,19.6
2022-08-04T05:04:02.821Z,19.6
2022-08-04T05:06:10.240Z,19.5
2022-08-04T05:08:04.379Z,19.8
2022-08-04T05:10:02.297Z,19.9
2022-08-04T05:12:02.589Z,20
2022-08-04T05:14:34.259Z,19.9
2022-08-04T05:16:02.107Z,20
2022-08-04T05:20:02.426Z,20.2
2022-08-04T05:22:02.122Z,20.3
2022-08-04T05:24:03.080Z,20.5
2022-08-04T05:26:02.354Z,20.6
2022-08-04T05:28:02.107Z,20.7
2022-08-04T05:30:02.458Z,20.8
2022-08-04T05:32:02.439Z,20.9
2022-08-04T05:34:02.113Z,21.1
2022-08-04T05:36:18.251Z,21.2
2022-08-04T05:38:02.731Z,21.2
2022-08-04T05:40:02.106Z,21.5
2022-08-04T05:42:04.221Z,21.3
2022-08-04T05:44:02.713Z,22.4
2022-08-04T05:46:02.103Z,24.7
2022-08-04T05:48:03.641Z,24.7
2022-08-04T05:50:02.542Z,24.4
2022-08-04T05:52:05.691Z,24.6
2022-08-04T05:54:06.748Z,24.8
2022-08-04T05:56:03.849Z,25.1
2022-08-04T05:58:02.120Z,25.1
2022-08-04T06:00:14.789Z,25.2
2022-08-04T06:02:02.434Z,24.9
2022-08-04T06:04:06.844Z,24.9
2022-08-04T06:06:02.675Z,25.2
2022-08-04T06:08:04.370Z,25.4
2022-08-04T06:10:02.837Z,25.1
2022-08-04T06:12:04.644Z,25.1
2022-08-04T06:16:03.894Z,25.6
2022-08-04T06:18:34.226Z,25.8
2022-08-04T06:20:18.552Z,25.9
2022-08-04T06:22:02.100Z,26
2022-08-04T06:24:04.627Z,25.8
2022-08-04T06:26:02.388Z,25.7
2022-08-04T06:28:02.490Z,26
2022-08-04T06:34:02.158Z,26.4
2022-08-04T06:36:02.380Z,26.6
2022-08-04T06:38:02.760Z,26.6
2022-08-04T06:40:02.138Z,26.6
2022-08-04T06:42:17.608Z,26.7
2022-08-04T06:44:02.375Z,26.8
2022-08-04T06:46:02.116Z,26.7
2022-08-04T06:48:02.326Z,26.8
2022-08-04T06:51:24.100Z,26.8
2022-08-04T06:52:02.130Z,26.5
2022-08-04T06:54:02.357Z,26.3
2022-08-04T06:56:02.873Z,26.3
2022-08-04T06:58:03.228Z,26.7
2022-08-04T07:00:04.126Z,26.2
2022-08-04T07:02:02.439Z,26.9
2022-08-04T07:04:02.189Z,26.7
2022-08-04T07:06:05.912Z,26.6
2022-08-04T07:08:02.892Z,26.4
2022-08-04T07:10:02.154Z,26.7
2022-08-04T07:12:03.285Z,26.8
2022-08-04T07:14:02.345Z,26.8
2022-08-04T07:16:02.149Z,27
2022-08-04T07:18:03.041Z,27.5
2022-08-04T07:20:02.594Z,27.1
2022-08-04T07:22:06.483Z,26.7
2022-08-04T07:24:02.337Z,27
2022-08-04T07:26:10.837Z,27.2
2022-08-04T07:28:03.751Z,27.4
2022-08-04T07:30:35.728Z,27.7
2022-08-04T07:32:02.506Z,27.7
2022-08-04T07:34:11.717Z,27.6
2022-08-04T07:36:04.301Z,27.7
2022-08-04T07:38:02.349Z,27.8
2022-08-04T07:40:04.337Z,27.8
2022-08-04T07:42:02.543Z,27.8
2022-08-04T07:44:03.940Z,27.8
2022-08-04T07:46:02.187Z,27.7
2022-08-04T07:48:04.500Z,27.6
2022-08-04T07:52:02.146Z,27.9
2022-08-04T07:54:05.616Z,27.9
2022-08-04T07:56:02.420Z,28.2
2022-08-04T07:58:02.175Z,28.1
2022-08-04T08:00:02.620Z,28.3
2022-08-04T08:02:02.811Z,28.1
2022-08-04T08:04:03.067Z,28.1
2022-08-04T08:06:18.460Z,28.1
2022-08-04T08:08:02.378Z,28.2
2022-08-04T08:10:05.763Z,28.3
2022-08-04T08:14:02.364Z,28.4
2022-08-04T08:16:02.161Z,28.4
2022-08-04T08:18:03.947Z,28.4
2022-08-04T08:20:03.150Z,28.5
2022-08-04T08:22:03.744Z,28.8
2022-08-04T08:24:02.797Z,28.8
2022-08-04T08:26:02.470Z,28.9
2022-08-04T08:28:02.861Z,28.9
2022-08-04T08:30:02.685Z,28.9
2022-08-04T08:32:08.040Z,28.9
2022-08-04T08:34:02.493Z,28.9
2022-08-04T08:36:03.726Z,29
2022-08-04T08:38:04.031Z,28.9
2022-08-04T08:40:02.117Z,28.7
2022-08-04T08:42:02.350Z,28.8
2022-08-04T08:44:07.354Z,28.9
2022-08-04T08:46:02.117Z,29.1
2022-08-04T08:48:05.660Z,29.2
2022-08-04T08:50:04.578Z,29.2
2022-08-04T08:52:02.139Z,29.3
2022-08-04T08:54:02.343Z,29.4
2022-08-04T08:56:02.744Z,29.4
2022-08-04T08:58:02.443Z,29.4
2022-08-04T09:00:02.424Z,29.6
2022-08-04T09:02:03.818Z,29.6
2022-08-04T09:04:02.494Z,29.6
2022-08-04T09:06:02.485Z,29.6
2022-08-04T09:08:02.374Z,29.7
2022-08-04T09:10:02.504Z,29.6
2022-08-04T09:12:03.096Z,29.5
2022-08-04T09:14:02.376Z,29.6
2022-08-04T09:16:02.151Z,29.7
2022-08-04T09:18:02.362Z,29.6
2022-08-04T09:20:05.329Z,29.7
2022-08-04T09:22:02.494Z,29.8
2022-08-04T09:24:02.389Z,29.8
2022-08-04T09:26:02.394Z,29.8
2022-08-04T09:28:06.038Z,29.9
2022-08-04T09:30:02.434Z,29.8
2022-08-04T09:32:06.551Z,29.8
2022-08-04T09:34:02.593Z,29.9
2022-08-04T09:36:06.884Z,29.9
2022-08-04T09:38:10.315Z,30
2022-08-04T09:40:02.146Z,30.1
2022-08-04T09:42:06.808Z,30.1
2022-08-04T09:44:43.514Z,30.1
2022-08-04T09:46:02.152Z,30.1
2022-08-04T09:48:07.396Z,30.1
2022-08-04T09:50:06.471Z,30
2022-08-04T09:54:02.355Z,30.2
2022-08-04T09:56:03.412Z,30.3
2022-08-04T09:58:02.165Z,30.3
2022-08-04T10:00:02.497Z,30.4
2022-08-04T10:02:03.834Z,30.4
2022-08-04T10:04:02.570Z,30.4
2022-08-04T10:06:02.382Z,30.4
2022-08-04T10:08:15.979Z,30.5
2022-08-04T10:12:02.388Z,30.7
2022-08-04T10:14:05.208Z,30.7
2022-08-04T10:16:06.887Z,30.7
2022-08-04T10:18:02.343Z,30.7
2022-08-04T10:20:02.455Z,30.7
2022-08-04T10:22:27.519Z,30.6
2022-08-04T10:24:02.362Z,30.6
2022-08-04T10:26:08.415Z,30.4
2022-08-04T10:28:03.279Z,30.5
2022-08-04T10:30:02.345Z,30.6
2022-08-04T10:32:02.771Z,30.6
2022-08-04T10:34:06.828Z,30.5
2022-08-04T10:36:02.363Z,30.7
2022-08-04T10:38:02.569Z,30.7
2022-08-04T10:40:02.234Z,30.7
2022-08-04T10:42:02.502Z,30.7
2022-08-04T10:44:02.408Z,30.7
2022-08-04T10:46:02.140Z,30.7
2022-08-04T10:48:02.711Z,30.7
2022-08-04T10:52:02.155Z,30.8
2022-08-04T10:54:02.339Z,30.7
2022-08-04T10:56:05.875Z,30.7
2022-08-04T10:58:02.547Z,30.7
2022-08-04T11:00:03.629Z,30.8
2022-08-04T11:02:03.689Z,30.8
2022-08-04T11:04:02.216Z,30.9
2022-08-04T11:06:02.349Z,30.9
2022-08-04T11:08:02.385Z,30.8
2022-08-04T11:10:04.337Z,30.8
2022-08-04T11:12:02.441Z,30.8
2022-08-04T11:14:03.831Z,30.8
2022-08-04T11:16:04.048Z,30.8
2022-08-04T11:18:06.767Z,30.9
2022-08-04T11:20:18.531Z,30.9
2022-08-04T11:22:06.213Z,30.9
2022-08-04T11:24:02.378Z,31
2022-08-04T11:26:07.135Z,31
2022-08-04T11:28:03.477Z,31.1
2022-08-04T11:30:03.963Z,31.1
2022-08-04T11:32:02.780Z,31.1
2022-08-04T11:34:02.736Z,31.1
2022-08-04T11:36:03.048Z,31.1
2022-08-04T11:38:02.868Z,31.1
2022-08-04T11:40:02.140Z,31.1
2022-08-04T11:42:04.446Z,31.1
2022-08-04T11:44:06.771Z,31.1
2022-08-04T11:46:07.216Z,31.2
2022-08-04T11:48:02.834Z,31.2
2022-08-04T11:50:02.612Z,31.2
2022-08-04T11:54:04.095Z,31.3
2022-08-04T11:56:07.360Z,31.3
2022-08-04T11:58:02.163Z,31.4
2022-08-04T12:02:02.496Z,31.4
2022-08-04T12:04:03.564Z,31.3
2022-08-04T12:06:07.493Z,31.3
2022-08-04T12:08:04.163Z,31.3
2022-08-04T12:10:02.673Z,31.3
2022-08-04T12:12:02.382Z,31.4
2022-08-04T12:14:03.796Z,31.5
2022-08-04T12:16:02.146Z,31.5
2022-08-04T12:18:07.550Z,31.5
2022-08-04T12:22:02.169Z,31.6
2022-08-04T12:24:02.399Z,31.6
2022-08-04T12:26:02.787Z,31.7
2022-08-04T12:28:02.510Z,31.7
2022-08-04T12:30:57.655Z,31.8
2022-08-04T12:32:02.438Z,31.9
2022-08-04T12:34:04.012Z,31.8
2022-08-04T12:36:10.807Z,31.8
2022-08-04T12:38:02.475Z,31.8
2022-08-04T12:40:21.534Z,31.8
2022-08-04T12:42:02.797Z,31.8
2022-08-04T12:44:02.418Z,31.8
2022-08-04T12:46:02.186Z,31.9
2022-08-04T12:48:04.559Z,31.9
2022-08-04T12:50:03.177Z,32
2022-08-04T12:52:07.246Z,32.1
2022-08-04T12:54:02.424Z,32
2022-08-04T12:56:02.850Z,32.1
2022-08-04T12:58:02.182Z,32.1
2022-08-04T13:00:04.482Z,32.1
2022-08-04T13:02:10.402Z,32.1
2022-08-04T13:04:02.244Z,32.1
2022-08-04T13:06:03.059Z,32.1
2022-08-04T13:08:07.028Z,32.2
2022-08-04T13:10:05.907Z,32.2
2022-08-04T13:12:02.477Z,32.1
2022-08-04T13:14:24.708Z,32.1
2022-08-04T13:16:02.183Z,32.2
2022-08-04T13:18:03.223Z,32.2
2022-08-04T13:20:02.769Z,32.3
2022-08-04T13:22:03.428Z,32.2
2022-08-04T13:24:11.130Z,32.2
2022-08-04T13:26:41.055Z,32.2
2022-08-04T13:28:04.129Z,32.2
2022-08-04T13:30:03.642Z,32.2
2022-08-04T13:32:02.428Z,32.1
2022-08-04T13:34:05.416Z,32.2
2022-08-04T13:36:05.630Z,32.3
2022-08-04T13:38:02.697Z,32.2
2022-08-04T13:40:02.215Z,32.2
2022-08-04T13:44:16.576Z,32.1
2022-08-04T13:46:04.302Z,32.2
2022-08-04T13:48:15.270Z,32.2
2022-08-04T13:50:10.958Z,32.2
2022-08-04T13:54:04.006Z,32.1
2022-08-04T13:56:02.781Z,32.1
2022-08-04T13:58:04.020Z,32.2
2022-08-04T14:00:02.695Z,32.2
2022-08-04T14:02:05.570Z,32.2
2022-08-04T14:04:10.776Z,32.2
2022-08-04T14:08:07.329Z,32.2
2022-08-04T14:10:03.250Z,32.2
2022-08-04T14:12:11.053Z,32.2
2022-08-04T14:14:02.879Z,32.3
2022-08-04T14:16:07.141Z,32.3
2022-08-04T14:18:03.907Z,32.3
2022-08-04T14:20:03.987Z,32.3
2022-08-04T14:22:03.520Z,32.2
2022-08-04T14:24:02.416Z,32.2
2022-08-04T14:26:02.979Z,32.2
2022-08-04T14:28:02.167Z,32.2
2022-08-04T14:30:05.609Z,32.2
2022-08-04T14:32:03.297Z,32.3
2022-08-04T14:34:10.186Z,32.3
2022-08-04T14:36:04.497Z,32.2
2022-08-04T14:38:07.244Z,32.2
2022-08-04T14:40:09.116Z,32.2
2022-08-04T14:42:04.307Z,32.2
2022-08-04T14:44:02.428Z,32.2
2022-08-04T14:46:02.211Z,32.2
2022-08-04T14:48:02.442Z,32.2
2022-08-04T14:50:02.854Z,32.2
2022-08-04T14:52:02.523Z,32.2
2022-08-04T14:54:07.881Z,32.2
2022-08-04T14:58:33.109Z,32.3
2022-08-04T15:00:11.958Z,32.3
2022-08-04T15:02:02.592Z,32.3
2022-08-04T15:04:02.229Z,32.3
2022-08-04T15:06:06.853Z,32.3
2022-08-04T15:08:03.725Z,32.2
2022-08-04T15:10:04.143Z,32.2
2022-08-04T15:12:02.369Z,32.2
2022-08-04T15:14:02.752Z,32.2
2022-08-04T15:16:07.688Z,32.1
2022-08-04T15:18:04.115Z,32.1
2022-08-04T15:22:02.185Z,32.1
2022-08-04T15:24:02.844Z,32.1
2022-08-04T15:26:02.458Z,32.1
2022-08-04T15:28:02.167Z,32.1
2022-08-04T15:30:12.302Z,32.1
2022-08-04T15:32:04.925Z,32.1
2022-08-04T15:34:10.469Z,32.1
2022-08-04T15:36:04.560Z,32.1
2022-08-04T15:38:04.778Z,32.1
2022-08-04T15:40:07.424Z,32.1
2022-08-04T15:42:03.125Z,32.1
2022-08-04T15:44:04.052Z,32
2022-08-04T15:46:42.163Z,32
2022-08-04T15:48:05.359Z,32.1
2022-08-04T15:50:02.424Z,32.1
2022-08-04T15:52:02.752Z,32.1
2022-08-04T15:54:08.340Z,32.1
2022-08-04T15:56:02.736Z,32.1
2022-08-04T15:58:04.085Z,32.2
2022-08-04T16:00:02.826Z,32.2
2022-08-04T16:02:10.819Z,32.1
2022-08-04T16:04:04.091Z,32.1
2022-08-04T16:06:02.572Z,32.1
2022-08-04T16:08:02.496Z,32.1
2022-08-04T16:10:02.227Z,32.1
2022-08-04T16:12:04.412Z,32
2022-08-04T16:14:02.427Z,31.9
2022-08-04T16:16:03.595Z,32
2022-08-04T16:18:02.406Z,32
2022-08-04T16:22:02.549Z,31.9
2022-08-04T16:24:13.160Z,31.9
2022-08-04T16:28:03.556Z,31.9
2022-08-04T16:30:02.773Z,31.9
2022-08-04T16:32:02.460Z,31.9
2022-08-04T16:34:04.894Z,32
2022-08-04T16:36:07.895Z,31.9
2022-08-04T16:38:03.186Z,31.9
2022-08-04T16:40:02.214Z,31.9
2022-08-04T16:42:02.432Z,31.9
2022-08-04T16:44:02.431Z,32
2022-08-04T16:46:02.810Z,32
2022-08-04T16:48:02.413Z,31.9
2022-08-04T16:52:02.613Z,31.9
2022-08-04T16:54:05.108Z,31.9
2022-08-04T16:56:02.444Z,31.9
2022-08-04T16:58:02.372Z,31.9
2022-08-04T17:00:04.452Z,31.8
2022-08-04T17:02:02.514Z,31.8
2022-08-04T17:04:02.953Z,31.7
2022-08-04T17:06:02.466Z,31.8
2022-08-04T17:12:02.409Z,31.8
2022-08-04T17:14:05.284Z,31.8
2022-08-04T17:16:02.211Z,31.8
2022-08-04T17:18:06.247Z,31.7
2022-08-04T17:20:04.042Z,31.7
2022-08-04T17:22:04.449Z,31.7
2022-08-04T17:26:02.757Z,31.7
2022-08-04T17:28:10.095Z,31.6
2022-08-04T17:30:02.390Z,31.6
2022-08-04T17:32:02.645Z,31.6
2022-08-04T17:34:02.885Z,31.6
2022-08-04T17:36:02.464Z,31.6
2022-08-04T17:38:04.014Z,31.6
2022-08-04T17:40:02.941Z,31.6
2022-08-04T17:42:07.101Z,31.6
2022-08-04T17:44:05.377Z,31.5
2022-08-04T17:46:02.909Z,31.5
2022-08-04T17:48:04.641Z,31.5
2022-08-04T17:50:02.829Z,31.5
2022-08-04T17:52:07.194Z,31.5
2022-08-04T17:54:03.518Z,31.5
2022-08-04T17:56:06.178Z,31.4
2022-08-04T17:58:10.532Z,31.4
2022-08-04T18:00:03.009Z,31.4
2022-08-04T18:02:05.635Z,31.4
2022-08-04T18:04:02.244Z,31.3
2022-08-04T18:06:03.638Z,31.3
2022-08-04T18:08:35.967Z,31.3
2022-08-04T18:10:30.430Z,31.3
2022-08-04T18:12:02.440Z,31.2
2022-08-04T18:14:02.454Z,31.2
2022-08-04T18:16:02.944Z,31.2
2022-08-04T18:18:22.267Z,31.2
2022-08-04T18:20:02.790Z,31.1
2022-08-04T18:24:04.073Z,31.1
2022-08-04T18:26:03.613Z,31
2022-08-04T18:28:02.587Z,31
2022-08-04T18:30:15.611Z,31
2022-08-04T18:32:04.035Z,31
2022-08-04T18:34:02.253Z,31
2022-08-04T18:38:06.908Z,30.9
2022-08-04T18:42:04.315Z,30.9
2022-08-04T18:44:03.359Z,30.8
2022-08-04T18:48:14.292Z,30.5
2022-08-04T18:50:32.849Z,30.7
2022-08-04T18:52:08.068Z,30.7
2022-08-04T18:54:02.878Z,30.5
2022-08-04T18:56:06.180Z,30.5
2022-08-04T18:58:06.185Z,30.4
2022-08-04T19:00:02.962Z,30.3
2022-08-04T19:02:09.578Z,30.3
2022-08-04T19:04:02.816Z,30.1
2022-08-04T19:06:02.510Z,30.1
2022-08-04T19:08:11.709Z,30
2022-08-04T19:10:02.222Z,30
2022-08-04T19:12:05.610Z,29.9
2022-08-04T19:14:02.944Z,29.9
2022-08-04T19:16:02.208Z,29.8
2022-08-04T19:18:02.581Z,29.7
2022-08-04T19:20:02.492Z,29.7
2022-08-04T19:22:08.177Z,29.6
2022-08-04T19:24:11.732Z,29.5
2022-08-04T19:26:05.629Z,29.5
2022-08-04T19:28:02.205Z,29.5
2022-08-04T19:30:02.777Z,29.5
2022-08-04T19:32:14.277Z,29.4
2022-08-04T19:36:05.769Z,29.2
2022-08-04T19:38:03.970Z,29.2
2022-08-04T19:40:05.538Z,29.3
2022-08-04T19:42:10.853Z,29.3
2022-08-04T19:44:05.622Z,29.3
2022-08-04T19:46:07.198Z,29.2
2022-08-04T19:48:12.465Z,29.2
2022-08-04T19:50:10.630Z,29.2
2022-08-04T19:52:03.010Z,29.3
2022-08-04T19:54:16.618Z,29.2
2022-08-04T19:56:02.503Z,29.2
2022-08-04T19:58:04.144Z,29.2
2022-08-04T20:02:04.320Z,29
2022-08-04T20:04:08.646Z,28.9
2022-08-04T20:06:04.376Z,28.9
2022-08-04T20:08:02.481Z,28.9
2022-08-04T20:10:04.232Z,28.8
2022-08-04T20:12:02.421Z,28.8
2022-08-04T20:14:02.453Z,28.7
2022-08-04T20:16:02.228Z,28.7
2022-08-04T20:18:07.322Z,28.7
2022-08-04T20:20:02.487Z,28.6
2022-08-04T20:22:04.199Z,28.6
2022-08-04T20:24:37.296Z,28.5
2022-08-04T20:26:02.542Z,28.5
2022-08-04T20:28:04.128Z,28.5
2022-08-04T20:30:09.094Z,28.4
2022-08-04T20:32:05.292Z,28.3
2022-08-04T20:34:03.003Z,28.3
2022-08-04T20:36:03.654Z,28.3
2022-08-04T20:38:07.330Z,28.2
2022-08-04T20:42:05.689Z,28
2022-08-04T20:44:02.489Z,28
2022-08-04T20:46:02.969Z,28
2022-08-04T20:48:04.069Z,27.9
2022-08-04T20:50:02.614Z,27.9
2022-08-04T20:52:12.253Z,27.8
2022-08-04T20:54:02.447Z,27.8
2022-08-04T20:56:02.486Z,27.7
2022-08-04T20:58:03.791Z,27.7
2022-08-04T21:00:05.178Z,27.7
2022-08-04T21:02:02.538Z,27.7
2022-08-04T21:04:05.142Z,27.7
2022-08-04T21:06:04.141Z,27.7
2022-08-04T21:08:03.205Z,27.6
2022-08-04T21:10:02.213Z,27.6
2022-08-04T21:12:11.819Z,27.5
2022-08-04T21:14:02.480Z,27.5
2022-08-04T21:16:05.137Z,27.4
2022-08-04T21:18:03.971Z,27.5
2022-08-04T21:22:02.252Z,27.4
2022-08-04T21:24:05.350Z,27.3
2022-08-04T21:26:02.873Z,27.3
2022-08-04T21:28:05.158Z,27.2
2022-08-04T21:30:02.469Z,27.3
2022-08-04T21:32:02.468Z,27.2
2022-08-04T21:34:03.003Z,27.1
2022-08-04T21:36:05.487Z,27.1
2022-08-04T21:38:02.762Z,27.1
2022-08-04T21:40:09.191Z,27.1
2022-08-04T21:42:30.694Z,26.8
2022-08-04T21:44:04.153Z,26.9
2022-08-04T21:46:03.941Z,26.7
2022-08-04T21:48:04.324Z,26.6
2022-08-04T21:50:02.494Z,26.7
2022-08-04T21:52:11.327Z,26.7
2022-08-04T21:54:02.612Z,26.8
2022-08-04T21:56:05.414Z,26.7
2022-08-04T21:58:04.275Z,26.7
2022-08-04T22:00:05.700Z,26.7
2022-08-04T22:02:04.845Z,26.6
2022-08-04T22:04:04.390Z,26.4
2022-08-04T22:06:02.476Z,26.1
2022-08-04T22:08:02.471Z,26
2022-08-04T22:10:02.740Z,26
2022-08-04T22:12:03.181Z,26.1
2022-08-04T22:14:10.435Z,26
2022-08-04T22:16:03.192Z,26.1
2022-08-04T22:20:05.448Z,26
2022-08-04T22:24:02.575Z,25.9
2022-08-04T22:26:05.562Z,25.9
2022-08-04T22:28:02.794Z,25.8
2022-08-04T22:30:02.461Z,25.6
2022-08-04T22:32:11.240Z,25.7
2022-08-04T22:34:03.078Z,25.6
2022-08-04T22:36:05.922Z,25.8
2022-08-04T22:38:05.991Z,25.9
2022-08-04T22:40:10.258Z,25.9
2022-08-04T22:42:05.654Z,25.7
2022-08-04T22:46:05.113Z,25.8
2022-08-04T22:48:04.647Z,25.7
2022-08-04T22:50:21.956Z,25.6
2022-08-04T22:56:07.819Z,25.6
2022-08-04T22:58:04.465Z,25.6
2022-08-04T23:00:08.048Z,25.5
2022-08-04T23:02:07.208Z,25.3
2022-08-04T23:04:02.262Z,25.4
2022-08-04T23:06:07.006Z,25.3
2022-08-04T23:08:04.267Z,25.3
2022-08-04T23:10:12.068Z,25.3
2022-08-04T23:12:24.174Z,25.3
2022-08-04T23:14:02.483Z,25.3
2022-08-04T23:16:04.162Z,25.2
2022-08-04T23:18:04.384Z,25.2
2022-08-04T23:20:02.487Z,25
2022-08-04T23:24:02.716Z,25
2022-08-04T23:26:07.221Z,25
2022-08-04T23:28:05.627Z,25
2022-08-04T23:30:04.484Z,25
2022-08-04T23:32:02.859Z,25
2022-08-04T23:34:08.331Z,25
2022-08-04T23:36:02.493Z,25
2022-08-04T23:38:30.121Z,25
2022-08-04T23:40:04.314Z,24.9
2022-08-04T23:44:02.520Z,24.9
2022-08-04T23:46:04.761Z,24.8
2022-08-04T23:48:14.900Z,24.9
2022-08-04T23:50:02.481Z,24.8
2022-08-04T23:52:02.234Z,24.8
2022-08-04T23:54:03.851Z,24.7
2022-08-04T23:56:02.514Z,24.8
2022-08-04T23:58:06.668Z,24.8
